createdAt,value
2019-02-05T00:00:35.835Z,2.24
2019-02-05T00:05:39.403Z,2.18
2019-02-05T00:10:42.363Z,2.23
2019-02-05T00:15:44.862Z,2.14
2019-02-05T00:20:48.434Z,2.21
2019-02-05T00:25:52.056Z,2.12
2019-02-05T00:30:55.633Z,2.22
2019-02-05T00:35:59.109Z,2.19
2019-02-05T00:41:03.348Z,2.11
2019-02-05T00:46:06.211Z,2.12
2019-02-05T00:51:09.807Z,2.20
2019-02-05T00:56:17.631Z,2.29
2019-02-05T01:01:17.827Z,2.26
2019-02-05T01:06:21.300Z,2.28
2019-02-05T01:11:24.667Z,2.32
2019-02-05T01:16:27.245Z,2.35
2019-02-05T01:21:30.473Z,2.39
2019-02-05T01:26:34.058Z,2.37
2019-02-05T01:31:37.786Z,2.33
2019-02-05T01:36:41.034Z,2.40
2019-02-05T01:41:44.509Z,2.35
2019-02-05T01:46:47.970Z,2.35
2019-02-05T01:51:50.902Z,2.47
2019-02-05T01:56:54.496Z,2.51
2019-02-05T02:01:57.758Z,2.42
2019-02-05T02:07:01.209Z,2.37
2019-02-05T02:12:04.795Z,2.45
2019-02-05T02:17:08.316Z,2.50
2019-02-05T02:22:11.509Z,2.51
2019-02-05T02:27:15.079Z,2.50
2019-02-05T02:32:18.262Z,2.57
2019-02-05T02:37:20.769Z,2.61
2019-02-05T02:42:23.976Z,2.67
2019-02-05T02:47:27.867Z,2.75
2019-02-05T02:52:31.233Z,2.76
2019-02-05T02:57:34.416Z,2.91
2019-02-05T03:02:37.295Z,2.84
2019-02-05T03:07:40.208Z,2.84
2019-02-05T03:12:43.852Z,2.88
2019-02-05T03:17:46.649Z,2.90
2019-02-05T03:22:49.851Z,2.85
2019-02-05T03:27:54.278Z,2.88
2019-02-05T03:32:57.667Z,2.91
2019-02-05T03:38:01.145Z,2.96
2019-02-05T03:43:04.849Z,2.97
2019-02-05T03:48:08.071Z,3.04
2019-02-05T03:53:11.953Z,3.06
2019-02-05T03:58:42.948Z,3.05
2019-02-05T04:04:45.656Z,3.00
2019-02-05T04:10:27.167Z,3.01
2019-02-05T04:16:39.387Z,3.05
2019-02-05T04:22:19.387Z,3.04
2019-02-05T04:27:43.864Z,3.09
2019-02-05T04:33:23.741Z,3.21
2019-02-05T04:38:46.103Z,3.09
2019-02-05T04:44:42.453Z,3.18
2019-02-05T04:50:24.017Z,3.15
2019-02-05T04:56:14.722Z,3.03
2019-02-05T05:02:02.342Z,3.11
2019-02-05T05:07:24.937Z,3.06
2019-02-05T05:12:31.786Z,3.07
2019-02-05T05:17:34.602Z,3.34
2019-02-05T05:22:37.876Z,3.25
2019-02-05T05:27:41.976Z,3.32
2019-02-05T05:32:44.505Z,3.30
2019-02-05T05:37:47.747Z,3.21
2019-02-05T05:42:50.960Z,3.10
2019-02-05T05:47:54.208Z,3.05
2019-02-05T05:52:57.137Z,3.16
2019-02-05T05:58:00.684Z,3.21
2019-02-05T06:03:03.649Z,3.12
2019-02-05T06:08:16.086Z,3.19
2019-02-05T06:13:19.504Z,3.10
2019-02-05T06:18:22.748Z,3.19
2019-02-05T06:23:26.059Z,3.19
2019-02-05T06:28:34.698Z,3.34
2019-02-05T06:33:33.976Z,3.36
2019-02-05T06:38:37.105Z,3.43
2019-02-05T06:43:40.615Z,3.32
2019-02-05T06:48:43.126Z,3.36
2019-02-05T06:53:45.615Z,3.31
2019-02-05T06:58:48.811Z,3.49
2019-02-05T07:03:52.352Z,3.37
2019-02-05T07:08:55.592Z,3.41
2019-02-05T07:13:59.273Z,3.56
2019-02-05T07:19:02.526Z,3.45
2019-02-05T07:24:05.934Z,3.51
2019-02-05T07:29:09.356Z,3.50
2019-02-05T07:34:12.666Z,3.54
2019-02-05T07:39:15.668Z,3.72
2019-02-05T07:44:18.530Z,3.62
2019-02-05T07:49:21.746Z,3.50
2019-02-05T07:54:23.901Z,3.71
2019-02-05T07:59:26.856Z,3.60
2019-02-05T08:04:30.435Z,3.57
2019-02-05T08:09:35.030Z,3.74
2019-02-05T08:14:39.571Z,3.68
2019-02-05T08:19:42.228Z,3.58
2019-02-05T08:24:45.135Z,3.63
2019-02-05T08:29:48.383Z,3.68
2019-02-05T08:34:52.040Z,3.62
2019-02-05T08:39:55.684Z,3.69
2019-02-05T08:44:59.130Z,3.84
2019-02-05T08:50:02.439Z,3.93
2019-02-05T08:55:07.182Z,3.84
2019-02-05T09:00:14.448Z,3.97
2019-02-05T09:05:20.527Z,3.96
2019-02-05T09:10:28.644Z,4.04
2019-02-05T09:15:32.002Z,4.10
2019-02-05T09:20:34.923Z,4.13
2019-02-05T09:25:38.488Z,4.31
2019-02-05T09:30:41.808Z,4.07
2019-02-05T09:35:45.080Z,4.27
2019-02-05T09:40:48.785Z,4.26
2019-02-05T09:45:52.060Z,4.31
2019-02-05T09:50:55.688Z,4.36
2019-02-05T09:55:58.724Z,4.49
2019-02-05T10:01:02.140Z,4.46
2019-02-05T10:06:05.465Z,4.55
2019-02-05T10:11:08.454Z,4.36
2019-02-05T10:16:10.998Z,4.47
2019-02-05T10:21:14.282Z,4.55
2019-02-05T10:26:17.163Z,4.58
2019-02-05T10:31:20.476Z,4.63
2019-02-05T10:36:24.076Z,4.70
2019-02-05T10:41:27.290Z,4.84
2019-02-05T10:46:30.557Z,4.93
2019-02-05T10:51:33.926Z,5.03
2019-02-05T10:56:37.447Z,4.92
2019-02-05T11:01:40.044Z,5.03
2019-02-05T11:06:44.501Z,5.06
2019-02-05T11:11:50.198Z,4.95
2019-02-05T11:16:54.474Z,4.89
2019-02-05T11:21:57.804Z,4.92
2019-02-05T11:27:01.109Z,4.92
2019-02-05T11:32:04.565Z,4.89
2019-02-05T11:37:07.942Z,4.79
2019-02-05T11:42:10.481Z,4.88
2019-02-05T11:47:13.801Z,4.85
2019-02-05T11:52:17.054Z,5.00
2019-02-05T11:57:20.000Z,5.02
2019-02-05T12:02:23.111Z,4.96
2019-02-05T12:07:26.074Z,4.92
2019-02-05T12:12:28.690Z,4.91
2019-02-05T12:17:32.368Z,4.98
2019-02-05T12:22:35.719Z,4.97
2019-02-05T12:27:39.006Z,4.92
2019-02-05T12:32:42.589Z,5.01
2019-02-05T12:37:45.181Z,4.98
2019-02-05T12:42:48.529Z,5.00
2019-02-05T12:47:51.814Z,5.17
2019-02-05T12:52:55.594Z,5.09
2019-02-05T12:57:59.977Z,5.06
2019-02-05T13:03:03.548Z,5.14
2019-02-05T13:08:07.584Z,5.32
2019-02-05T13:13:11.015Z,5.29
2019-02-05T13:18:14.396Z,5.30
2019-02-05T13:23:17.656Z,5.32
2019-02-05T13:28:21.020Z,5.34
2019-02-05T13:33:24.318Z,5.29
2019-02-05T13:38:28.010Z,5.43
2019-02-05T13:43:31.131Z,5.44
2019-02-05T13:48:34.478Z,5.39
2019-02-05T13:53:37.886Z,5.35
2019-02-05T13:58:41.530Z,5.25
2019-02-05T14:03:46.041Z,5.41
2019-02-05T14:08:49.641Z,5.41
2019-02-05T14:13:52.633Z,5.37
2019-02-05T14:18:55.938Z,5.30
2019-02-05T14:23:59.435Z,5.20
2019-02-05T14:29:02.393Z,5.42
2019-02-05T14:34:06.241Z,5.33
2019-02-05T14:39:11.003Z,5.32
2019-02-05T14:44:14.355Z,5.16
2019-02-05T14:49:17.592Z,5.28
2019-02-05T14:54:20.213Z,5.18
2019-02-05T14:59:23.099Z,5.02
2019-02-05T15:04:26.738Z,5.13
2019-02-05T15:09:29.727Z,5.13
2019-02-05T15:14:32.965Z,5.19
2019-02-05T15:19:36.321Z,5.04
2019-02-05T15:24:40.987Z,4.88
2019-02-05T15:29:43.943Z,4.96
2019-02-05T15:34:46.878Z,5.11
2019-02-05T15:39:50.299Z,5.02
2019-02-05T15:44:53.917Z,4.98
2019-02-05T15:50:05.846Z,4.99
2019-02-05T15:55:02.234Z,4.83
2019-02-05T16:00:08.064Z,4.95
2019-02-05T16:05:12.321Z,4.82
2019-02-05T16:10:15.755Z,4.79
2019-02-05T16:15:19.120Z,4.88
2019-02-05T16:20:22.317Z,4.78
2019-02-05T16:25:25.566Z,4.71
2019-02-05T16:30:28.826Z,4.76
2019-02-05T16:35:32.135Z,4.76
2019-02-05T16:40:35.487Z,4.84
2019-02-05T16:45:38.671Z,4.85
2019-02-05T16:50:43.618Z,4.76
2019-02-05T16:55:47.716Z,4.82
2019-02-05T17:00:53.398Z,4.74
2019-02-05T17:05:57.185Z,4.75
2019-02-05T17:11:00.225Z,4.63
2019-02-05T17:16:04.061Z,4.67
2019-02-05T17:21:06.898Z,4.74
2019-02-05T17:26:10.328Z,4.77
2019-02-05T17:31:13.956Z,4.62
2019-02-05T17:36:17.028Z,4.64
2019-02-05T17:41:20.733Z,4.53
2019-02-05T17:46:25.808Z,4.50
2019-02-05T17:51:29.293Z,4.33
2019-02-05T17:56:32.641Z,4.43
2019-02-05T18:01:36.426Z,4.50
2019-02-05T18:06:39.699Z,4.36
2019-02-05T18:11:43.568Z,4.46
2019-02-05T18:16:47.343Z,4.21
2019-02-05T18:21:51.966Z,3.96
2019-02-05T18:26:57.287Z,3.97
2019-02-05T18:32:02.369Z,3.96
2019-02-05T18:37:06.419Z,3.73
2019-02-05T18:42:12.103Z,3.86
2019-02-05T18:47:17.095Z,3.74
2019-02-05T18:52:23.906Z,3.75
2019-02-05T18:57:29.257Z,3.77
2019-02-05T19:02:33.867Z,3.75
2019-02-05T19:07:42.010Z,3.82
2019-02-05T19:12:48.284Z,3.78
2019-02-05T19:17:54.527Z,3.73
2019-02-05T19:22:59.786Z,3.64
2019-02-05T19:28:04.457Z,3.47
2019-02-05T19:33:09.247Z,3.43
2019-02-05T19:38:16.108Z,3.31
2019-02-05T19:43:23.396Z,3.36
2019-02-05T19:48:35.040Z,3.53
2019-02-05T19:53:42.857Z,3.49
2019-02-05T19:58:49.961Z,3.49
2019-02-05T20:03:56.471Z,3.54
2019-02-05T20:09:04.364Z,3.38
2019-02-05T20:14:09.369Z,3.31
2019-02-05T20:19:14.489Z,3.11
2019-02-05T20:24:19.709Z,3.37
2019-02-05T20:29:25.142Z,3.30
2019-02-05T20:34:33.662Z,3.25
2019-02-05T20:39:40.821Z,3.39
2019-02-05T20:44:47.281Z,3.46
2019-02-05T20:49:54.366Z,3.38
2019-02-05T20:55:00.953Z,3.53
2019-02-05T21:00:14.937Z,3.56
2019-02-05T21:05:20.106Z,3.30
2019-02-05T21:10:27.424Z,3.59
2019-02-05T21:15:31.987Z,3.67
2019-02-05T21:20:36.743Z,3.69
2019-02-05T21:25:41.566Z,3.66
2019-02-05T21:30:46.474Z,3.70
2019-02-05T21:35:50.066Z,3.82
2019-02-05T21:40:54.499Z,3.98
2019-02-05T21:46:00.970Z,3.99
2019-02-05T21:51:05.099Z,4.10
2019-02-05T21:56:08.435Z,4.05
2019-02-05T22:01:14.527Z,4.17
2019-02-05T22:06:17.432Z,4.08
2019-02-05T22:11:20.982Z,4.06
2019-02-05T22:16:24.890Z,4.03
2019-02-05T22:21:27.843Z,3.98
2019-02-05T22:26:31.463Z,4.09
2019-02-05T22:31:34.791Z,4.17
2019-02-05T22:36:38.031Z,4.15
2019-02-05T22:41:40.879Z,4.01
2019-02-05T22:46:43.922Z,4.01
2019-02-05T22:51:46.879Z,4.08
2019-02-05T22:56:49.898Z,3.96
2019-02-05T23:01:56.906Z,4.09
2019-02-05T23:07:04.214Z,4.01
2019-02-05T23:12:13.863Z,4.03
2019-02-05T23:17:17.212Z,4.08
2019-02-05T23:22:21.300Z,3.84
2019-02-05T23:27:24.690Z,3.81
2019-02-05T23:32:28.465Z,3.83
2019-02-05T23:37:31.436Z,3.76
2019-02-05T23:42:34.363Z,3.69
2019-02-05T23:47:38.598Z,3.60
2019-02-05T23:52:42.015Z,3.53
2019-02-05T23:57:45.347Z,3.48
